Time;durP1;ratioP1;P1;durP2;ratioP2;P2;SDS_P1;SDS_P2;PMS_P1;PMS_P2;Temp;Humidity;BMP_temperature;BMP_pressure;BME280_temperature;BME280_humidity;BME280_pressure;Samples;Min_cycle;Max_cycle;Signal;HPM_P1;HPM_P2
2021/09/01 00:01:24;;;;;;;;;;;;;;;;;;5033249;28;20404;-77
2021/09/01 00:04:08;;;;;;;;;;;;;;;;;;5035380;28;19920;-78
2021/09/01 00:06:52;;;;;;;;;;;;;;;;;;5034745;28;19921;-77
2021/09/01 00:09:37;;;;;;;;;;;;;;;;;;5035485;28;20409;-77
2021/09/01 00:12:21;;;;;;;;;;;;;;;;;;5039437;28;19928;-77
2021/09/01 00:15:06;;;;;;;;;;;;;;;;;;5033250;28;20404;-77
2021/09/01 00:17:50;;;;;;;;;;;;;;;;;;5033234;28;19920;-77
2021/09/01 00:20:34;;;;;;;;;;;;;;;;;;5039197;28;19928;-77
2021/09/01 00:23:18;;;;;;;;;;;;;;;;;;5037656;28;19936;-77
2021/09/01 00:26:02;;;;;;;;;;;;;;;;;;5034005;28;20289;-77
2021/09/01 00:28:46;;;;;;;;;;;;;;;;;;5035117;28;19935;-77
2021/09/01 00:31:31;;;;;;;;;;;;;;;;;;5037181;28;19920;-78
2021/09/01 00:34:15;;;;;;;;;;;;;;;;;;5033815;28;19928;-77
2021/09/01 00:36:59;;;;;;;;;;;;;;;;;;5039025;28;19929;-78
2021/09/01 00:39:44;;;;;;;;;;;;;;;;;;5034573;28;19920;-78
2021/09/01 00:42:28;;;;;;;;;;;;;;;;;;5032750;28;20297;-78
2021/09/01 00:45:13;;;;;;;;;;;;;;;;;;5039021;28;19920;-77
2021/09/01 00:47:57;;;;;;;;;;;;;;;;;;5036420;28;20404;-78
2021/09/01 00:50:41;;;;;;;;;;;;;;;;;;5036296;28;19928;-76
2021/09/01 00:53:25;;;;;;;;;;;;;;;;;;5033364;28;19920;-76
2021/09/01 00:56:09;;;;;;;;;;;;;;;;;;5032614;28;19921;-77
2021/09/01 00:58:53;;;;;;;;;;;;;;;;;;5036531;28;19920;-76
2021/09/01 01:01:38;;;;;;;;;;;;;;;;;;5034535;28;19920;-77
2021/09/01 01:04:22;;;;;;;;;;;;;;;;;;5038118;28;20637;-77
2021/09/01 01:07:06;;;;;;;;;;;;;;;;;;5036610;28;19920;-76
2021/09/01 01:09:50;;;;;;;;;;;;;;;;;;5034011;28;20297;-76
2021/09/01 01:12:35;;;;;;;;;;;;;;;;;;5037603;28;19921;-76
2021/09/01 01:15:19;;;;;;;;;;;;;;;;;;5036500;28;19924;-77
2021/09/01 01:18:03;;;;;;;;;;;;;;;;;;5035037;28;19920;-77
2021/09/01 01:20:48;;;;;;;;;;;;;;;;;;5038394;28;19920;-77
2021/09/01 01:23:32;;;;;;;;;;;;;;;;;;5034423;28;19928;-76
2021/09/01 01:26:16;;;;;;;;;;;;;;;;;;5033805;28;19936;-76
2021/09/01 01:29:00;;;;;;;;;;;;;;;;;;5036068;28;19920;-77
2021/09/01 01:31:44;;;;;;;;;;;;;;;;;;5036960;28;19920;-76
2021/09/01 01:34:29;;;;;;;;;;;;;;;;;;5033929;28;19924;-76
2021/09/01 01:37:13;;;;;;;;;;;;;;;;;;5038296;28;20496;-76
2021/09/01 01:39:57;;;;;;;;;;;;;;;;;;5028895;28;19920;-76
2021/09/01 01:42:42;;;;;;;;;;;;;;;;;;5033255;28;19944;-76
2021/09/01 01:45:26;;;;;;;;;;;;;;;;;;5030431;28;19988;-77
2021/09/01 01:48:10;;;;;;;;;;;;;;;;;;5034014;28;20416;-76
2021/09/01 01:50:54;;;;;;;;;;;;;;;;;;5033913;28;19920;-77
2021/09/01 01:53:38;;;;;;;;;;;;;;;;;;5029737;28;19920;-77
2021/09/01 01:56:22;;;;;;;;;;;;;;;;;;5038012;28;19920;-78
2021/09/01 01:59:06;;;;;;;;;;;;;;;;;;5033997;28;19928;-77
2021/09/01 02:01:51;;;;;;;;;;;;;;;;;;5031181;28;19920;-77
2021/09/01 02:04:35;;;;;;;;;;;;;;;;;;5036315;28;20297;-77
2021/09/01 02:07:20;;;;;;;;;;;;;;;;;;5036156;28;19920;-77
2021/09/01 02:10:04;;;;;;;;;;;;;;;;;;5034379;28;19925;-77
2021/09/01 02:12:48;;;;;;;;;;;;;;;;;;5034616;28;20297;-77
2021/09/01 02:15:32;;;;;;;;;;;;;;;;;;5034592;28;19924;-77
2021/09/01 02:18:16;;;;;;;;;;;;;;;;;;5033182;28;19920;-77
2021/09/01 02:21:01;;;;;;;;;;;;;;;;;;5038084;28;19920;-77
2021/09/01 02:23:46;;;;;;;;;;;;;;;;;;5035326;28;19920;-77
2021/09/01 02:26:30;;;;;;;;;;;;;;;;;;5033302;28;19920;-78
2021/09/01 02:29:15;;;;;;;;;;;;;;;;;;5031942;28;19920;-77
2021/09/01 02:31:59;;;;;;;;;;;;;;;;;;5036098;28;19920;-78
2021/09/01 02:34:44;;;;;;;;;;;;;;;;;;5033181;28;19932;-77
2021/09/01 02:37:28;;;;;;;;;;;;;;;;;;5032749;28;19921;-77
2021/09/01 02:40:13;;;;;;;;;;;;;;;;;;5033740;28;19981;-77
2021/09/01 02:42:57;;;;;;;;;;;;;;;;;;5034940;28;19936;-77
2021/09/01 02:45:41;;;;;;;;;;;;;;;;;;5029827;28;21271;-77
2021/09/01 02:48:25;;;;;;;;;;;;;;;;;;5035850;28;19924;-78
2021/09/01 02:51:09;;;;;;;;;;;;;;;;;;5033366;28;20301;-77
2021/09/01 02:53:53;;;;;;;;;;;;;;;;;;5033557;28;19932;-77
2021/09/01 02:56:39;;;;;;;;;;;;;;;;;;5033243;28;19920;-76
2021/09/01 02:59:23;;;;;;;;;;;;;;;;;;5033738;28;19920;-76
2021/09/01 03:02:07;;;;;;;;;;;;;;;;;;5029935;28;19920;-77
2021/09/01 03:04:51;;;;;;;;;;;;;;;;;;5031180;28;20510;-77
2021/09/01 03:07:36;;;;;;;;;;;;;;;;;;5034299;28;20024;-77
2021/09/01 03:10:20;;;;;;;;;;;;;;;;;;5032381;28;19928;-77
2021/09/01 03:13:04;;;;;;;;;;;;;;;;;;5030933;28;19949;-77
2021/09/01 03:15:48;;;;;;;;;;;;;;;;;;5034768;28;19924;-77
2021/09/01 03:18:32;;;;;;;;;;;;;;;;;;5032143;28;19920;-77
2021/09/01 03:21:16;;;;;;;;;;;;;;;;;;5026732;28;19920;-77
2021/09/01 03:24:01;;;;;;;;;;;;;;;;;;5035156;28;19920;-77
2021/09/01 03:26:45;;;;;;;;;;;;;;;;;;5033674;28;19920;-78
2021/09/01 03:29:29;;;;;;;;;;;;;;;;;;5030584;28;20401;-77
2021/09/01 03:32:13;;;;;;;;;;;;;;;;;;5035346;28;19928;-77
2021/09/01 03:34:57;;;;;;;;;;;;;;;;;;5034724;28;19925;-78
2021/09/01 03:37:41;;;;;;;;;;;;;;;;;;5036251;28;19991;-78
2021/09/01 03:40:26;;;;;;;;;;;;;;;;;;5036291;28;19920;-77
2021/09/01 03:43:10;;;;;;;;;;;;;;;;;;5035508;28;19924;-77
2021/09/01 03:45:55;;;;;;;;;;;;;;;;;;5031237;28;20293;-77
2021/09/01 03:48:39;;;;;;;;;;;;;;;;;;5031159;28;19936;-77
2021/09/01 03:51:23;;;;;;;;;;;;;;;;;;5030458;28;20396;-77
2021/09/01 03:54:07;;;;;;;;;;;;;;;;;;5033402;28;20026;-77
2021/09/01 03:56:51;;;;;;;;;;;;;;;;;;5031297;28;19959;-77
2021/09/01 03:59:36;;;;;;;;;;;;;;;;;;5030604;28;19920;-77
2021/09/01 04:02:20;;;;;;;;;;;;;;;;;;5033411;28;19920;-76
2021/09/01 04:05:04;;;;;;;;;;;;;;;;;;5031247;28;19965;-77
2021/09/01 04:07:48;;;;;;;;;;;;;;;;;;5034467;28;19924;-76
2021/09/01 04:10:32;;;;;;;;;;;;;;;;;;5033369;28;19924;-77
2021/09/01 04:13:17;;;;;;;;;;;;;;;;;;5031834;28;19920;-76
2021/09/01 04:16:01;;;;;;;;;;;;;;;;;;5034793;28;19928;-77
2021/09/01 04:18:45;;;;;;;;;;;;;;;;;;5032705;28;19927;-77
2021/09/01 04:21:29;;;;;;;;;;;;;;;;;;5029682;28;19920;-77
2021/09/01 04:24:13;;;;;;;;;;;;;;;;;;5037306;28;19920;-77
2021/09/01 04:26:57;;;;;;;;;;;;;;;;;;5035194;28;19928;-77
2021/09/01 04:29:42;;;;;;;;;;;;;;;;;;5034573;28;19943;-77
2021/09/01 04:32:26;;;;;;;;;;;;;;;;;;5029939;28;19920;-77
2021/09/01 04:35:10;;;;;;;;;;;;;;;;;;5035245;28;19925;-77
2021/09/01 04:37:54;;;;;;;;;;;;;;;;;;5032040;28;20305;-78
2021/09/01 04:40:38;;;;;;;;;;;;;;;;;;5026657;28;19921;-78
2021/09/01 04:43:22;;;;;;;;;;;;;;;;;;5031200;28;19920;-77
2021/09/01 04:46:06;;;;;;;;;;;;;;;;;;5030954;28;19928;-76
2021/09/01 04:48:51;;;;;;;;;;;;;;;;;;5026273;28;20408;-76
2021/09/01 04:51:35;;;;;;;;;;;;;;;;;;5036290;28;19920;-77
2021/09/01 04:54:20;;;;;;;;;;;;;;;;;;5035896;28;19924;-76
2021/09/01 04:57:04;;;;;;;;;;;;;;;;;;5028037;28;19921;-76
2021/09/01 04:59:48;;;;;;;;;;;;;;;;;;5031895;28;19921;-76
2021/09/01 05:02:32;;;;;;;;;;;;;;;;;;5032772;28;19921;-76
2021/09/01 05:05:17;;;;;;;;;;;;;;;;;;5033495;28;19920;-76
2021/09/01 05:08:01;;;;;;;;;;;;;;;;;;5033790;28;19920;-76
2021/09/01 05:10:45;;;;;;;;;;;;;;;;;;5036816;28;19920;-76
2021/09/01 05:13:29;;;;;;;;;;;;;;;;;;5029362;28;20400;-76
2021/09/01 05:16:13;;;;;;;;;;;;;;;;;;5035140;28;19924;-76
2021/09/01 05:18:57;;;;;;;;;;;;;;;;;;5036317;28;19921;-77
2021/09/01 05:21:42;;;;;;;;;;;;;;;;;;5035346;28;19928;-77
2021/09/01 05:24:26;;;;;;;;;;;;;;;;;;5036020;28;20328;-77
2021/09/01 05:27:10;;;;;;;;;;;;;;;;;;5036568;28;20392;-77
2021/09/01 05:29:54;;;;;;;;;;;;;;;;;;5031210;28;19920;-78
2021/09/01 05:32:38;;;;;;;;;;;;;;;;;;5024875;28;19920;-77
2021/09/01 05:35:23;;;;;;;;;;;;;;;;;;5035584;28;19944;-77
2021/09/01 05:38:07;;;;;;;;;;;;;;;;;;5030769;28;19924;-77
2021/09/01 05:40:52;;;;;;;;;;;;;;;;;;5029683;28;20305;-77
2021/09/01 05:43:36;;;;;;;;;;;;;;;;;;5033995;28;20401;-77
2021/09/01 05:46:21;;;;;;;;;;;;;;;;;;5029672;28;19920;-79
2021/09/01 05:49:05;;;;;;;;;;;;;;;;;;5034134;28;19921;-77
2021/09/01 05:51:49;;;;;;;;;;;;;;;;;;5038808;28;19920;-77
2021/09/01 05:54:33;;;;;;;;;;;;;;;;;;5035259;28;19924;-78
2021/09/01 05:57:18;;;;;;;;;;;;;;;;;;5035932;28;19984;-78
2021/09/01 06:00:02;;;;;;;;;;;;;;;;;;5043405;28;19928;-79
2021/09/01 06:02:54;;;;;;;;;;;;;;;;;;5032374;28;19921;-78
2021/09/01 06:05:38;;;;;;;;;;;;;;;;;;5032460;28;19920;-77
2021/09/01 06:08:23;;;;;;;;;;;;;;;;;;5034403;28;19924;-77
2021/09/01 06:11:08;;;;;;;;;;;;;;;;;;5029528;28;20542;-77
2021/09/01 06:13:52;;;;;;;;;;;;;;;;;;5032465;28;19924;-78
2021/09/01 06:16:36;;;;;;;;;;;;;;;;;;5036736;28;19920;-77
2021/09/01 06:19:21;;;;;;;;;;;;;;;;;;5036113;28;19920;-78
2021/09/01 06:22:05;;;;;;;;;;;;;;;;;;5036777;28;19920;-78
2021/09/01 06:24:49;;;;;;;;;;;;;;;;;;5034392;28;19935;-78
2021/09/01 06:27:33;;;;;;;;;;;;;;;;;;5037474;28;19919;-78
2021/09/01 06:30:17;;;;;;;;;;;;;;;;;;5040548;28;19920;-78
2021/09/01 06:33:02;;;;;;;;;;;;;;;;;;5039078;28;19936;-79
2021/09/01 06:35:46;;;;;;;;;;;;;;;;;;5032066;28;19924;-78
2021/09/01 06:38:30;;;;;;;;;;;;;;;;;;5035010;28;19996;-78
2021/09/01 06:41:14;;;;;;;;;;;;;;;;;;5033862;28;20301;-77
2021/09/01 06:43:58;;;;;;;;;;;;;;;;;;5031609;28;19920;-77
2021/09/01 06:46:42;;;;;;;;;;;;;;;;;;5035903;28;20285;-77
2021/09/01 06:49:26;;;;;;;;;;;;;;;;;;5033345;28;20405;-77
2021/09/01 06:52:10;;;;;;;;;;;;;;;;;;5032842;28;19920;-77
2021/09/01 06:54:54;;;;;;;;;;;;;;;;;;5035259;28;19924;-78
2021/09/01 06:57:39;;;;;;;;;;;;;;;;;;5035075;28;20484;-77
2021/09/01 07:00:23;;;;;;;;;;;;;;;;;;5034724;28;20404;-79
2021/09/01 07:03:08;;;;;;;;;;;;;;;;;;5040627;28;20329;-79
2021/09/01 07:05:52;;;;;;;;;;;;;;;;;;5039196;28;19924;-80
2021/09/01 07:08:36;;;;;;;;;;;;;;;;;;5036282;28;19924;-79
2021/09/01 07:11:20;;;;;;;;;;;;;;;;;;5039417;28;19920;-79
2021/09/01 07:14:06;;;;;;;;;;;;;;;;;;5033744;28;19924;-79
2021/09/01 07:16:50;;;;;;;;;;;;;;;;;;5036571;28;19924;-78
2021/09/01 07:19:35;;;;;;;;;;;;;;;;;;5034337;28;20389;-78
2021/09/01 07:22:19;;;;;;;;;;;;;;;;;;5034809;28;19924;-79
2021/09/01 07:25:03;;;;;;;;;;;;;;;;;;5039463;28;19923;-79
2021/09/01 07:27:47;;;;;;;;;;;;;;;;;;5034859;28;19924;-80
2021/09/01 07:30:32;;;;;;;;;;;;;;;;;;5032725;28;20424;-80
2021/09/01 07:33:16;;;;;;;;;;;;;;;;;;5031817;28;20328;-79
2021/09/01 07:36:00;;;;;;;;;;;;;;;;;;5036356;28;19928;-79
2021/09/01 07:38:45;;;;;;;;;;;;;;;;;;5035641;28;20317;-79
2021/09/01 07:41:29;;;;;;;;;;;;;;;;;;5030883;28;19924;-78
2021/09/01 07:44:13;;;;;;;;;;;;;;;;;;5037357;28;19924;-78
2021/09/01 07:46:57;;;;;;;;;;;;;;;;;;5034081;28;19924;-79
2021/09/01 07:49:41;;;;;;;;;;;;;;;;;;5032848;28;21240;-78
2021/09/01 07:52:25;;;;;;;;;;;;;;;;;;5037258;28;19924;-79
2021/09/01 07:55:10;;;;;;;;;;;;;;;;;;5035182;28;19932;-78
2021/09/01 07:57:54;;;;;;;;;;;;;;;;;;5031966;28;19924;-78
2021/09/01 08:00:38;;;;;;;;;;;;;;;;;;5039549;28;19924;-79
2021/09/01 08:03:23;;;;;;;;;;;;;;;;;;5037494;28;19924;-79
2021/09/01 08:06:07;;;;;;;;;;;;;;;;;;5027256;28;20309;-78
2021/09/01 08:08:52;;;;;;;;;;;;;;;;;;5035795;28;19932;-77
2021/09/01 08:11:36;;;;;;;;;;;;;;;;;;5035496;28;19920;-77
2021/09/01 08:14:20;;;;;;;;;;;;;;;;;;5036562;28;19921;-77
2021/09/01 08:17:04;;;;;;;;;;;;;;;;;;5034447;28;19920;-77
2021/09/01 08:19:48;;;;;;;;;;;;;;;;;;5035400;28;19920;-79
2021/09/01 08:22:32;;;;;;;;;;;;;;;;;;5034056;28;19928;-77
2021/09/01 08:25:16;;;;;;;;;;;;;;;;;;5038165;28;19920;-77
2021/09/01 08:28:01;;;;;;;;;;;;;;;;;;5032723;28;19924;-78
2021/09/01 08:30:45;;;;;;;;;;;;;;;;;;5036105;28;19944;-77
2021/09/01 08:33:29;;;;;;;;;;;;;;;;;;5036880;28;19920;-77
2021/09/01 08:36:13;;;;;;;;;;;;;;;;;;5036771;28;19924;-77
2021/09/01 08:38:57;;;;;;;;;;;;;;;;;;5034806;28;19921;-77
2021/09/01 08:41:42;;;;;;;;;;;;;;;;;;5038725;28;20491;-77
2021/09/01 08:44:26;;;;;;;;;;;;;;;;;;5037240;28;19936;-77
2021/09/01 08:47:10;;;;;;;;;;;;;;;;;;5035949;28;20301;-78
2021/09/01 08:49:54;;;;;;;;;;;;;;;;;;5034582;28;20401;-77
2021/09/01 08:52:38;;;;;;;;;;;;;;;;;;5036308;28;20293;-77
2021/09/01 08:55:22;;;;;;;;;;;;;;;;;;5035715;28;19932;-77
2021/09/01 08:58:06;;;;;;;;;;;;;;;;;;5039394;28;20405;-77
2021/09/01 09:00:52;;;;;;;;;;;;;;;;;;5038049;28;19920;-77
2021/09/01 09:03:36;;;;;;;;;;;;;;;;;;5035767;28;19928;-77
2021/09/01 09:06:20;;;;;;;;;;;;;;;;;;5033252;28;19921;-77
2021/09/01 09:09:05;;;;;;;;;;;;;;;;;;5035971;28;19924;-77
2021/09/01 09:11:49;;;;;;;;;;;;;;;;;;5035925;28;19920;-77
2021/09/01 09:14:33;;;;;;;;;;;;;;;;;;5033824;28;19953;-77
2021/09/01 09:17:17;;;;;;;;;;;;;;;;;;5036593;28;19921;-77
2021/09/01 09:20:08;;;;;;;;;;;;;;;;;;5035921;28;19920;-77
2021/09/01 09:22:53;;;;;;;;;;;;;;;;;;5031991;28;19924;-77
2021/09/01 09:25:37;;;;;;;;;;;;;;;;;;5037854;28;19920;-77
2021/09/01 09:28:21;;;;;;;;;;;;;;;;;;5034957;28;20416;-77
2021/09/01 09:31:05;;;;;;;;;;;;;;;;;;5033930;28;19920;-77
2021/09/01 09:33:49;;;;;;;;;;;;;;;;;;5038011;28;19920;-77
2021/09/01 09:36:34;;;;;;;;;;;;;;;;;;5036316;28;19924;-77
2021/09/01 09:39:18;;;;;;;;;;;;;;;;;;5030271;28;19924;-77
2021/09/01 09:42:02;;;;;;;;;;;;;;;;;;5034713;28;19928;-80
2021/09/01 09:44:46;;;;;;;;;;;;;;;;;;5035618;28;19920;-77
2021/09/01 09:47:31;;;;;;;;;;;;;;;;;;5029642;28;19924;-78
2021/09/01 09:50:15;;;;;;;;;;;;;;;;;;5034202;28;20411;-78
2021/09/01 09:52:59;;;;;;;;;;;;;;;;;;5033558;28;19944;-78
2021/09/01 09:55:43;;;;;;;;;;;;;;;;;;5033216;28;19928;-78
2021/09/01 09:58:27;;;;;;;;;;;;;;;;;;5035688;28;19924;-78
2021/09/01 10:01:12;;;;;;;;;;;;;;;;;;5034182;28;19928;-78
2021/09/01 10:03:57;;;;;;;;;;;;;;;;;;5031539;28;20301;-77
2021/09/01 10:06:41;;;;;;;;;;;;;;;;;;5030185;28;19924;-77
2021/09/01 10:09:25;;;;;;;;;;;;;;;;;;5030038;28;20447;-77
2021/09/01 10:12:10;;;;;;;;;;;;;;;;;;5030924;28;20454;-77
2021/09/01 10:14:55;;;;;;;;;;;;;;;;;;5029150;28;19932;-78
2021/09/01 10:17:39;;;;;;;;;;;;;;;;;;5033296;28;19925;-77
2021/09/01 10:20:23;;;;;;;;;;;;;;;;;;5031280;28;19924;-78
2021/09/01 10:23:07;;;;;;;;;;;;;;;;;;5029912;28;19924;-77
2021/09/01 10:25:52;;;;;;;;;;;;;;;;;;5034512;28;19941;-78
2021/09/01 10:28:38;;;;;;;;;;;;;;;;;;5033815;28;19924;-79
2021/09/01 10:31:22;;;;;;;;;;;;;;;;;;5033049;28;20365;-78
2021/09/01 10:34:06;;;;;;;;;;;;;;;;;;5031408;28;19928;-78
2021/09/01 10:36:51;;;;;;;;;;;;;;;;;;5032855;28;19944;-79
2021/09/01 10:39:35;;;;;;;;;;;;;;;;;;5036911;28;19920;-79
2021/09/01 10:42:20;;;;;;;;;;;;;;;;;;5039608;28;19920;-79
2021/09/01 10:45:04;;;;;;;;;;;;;;;;;;5038387;28;19921;-79
2021/09/01 10:47:48;;;;;;;;;;;;;;;;;;5037318;28;19920;-79
2021/09/01 10:50:32;;;;;;;;;;;;;;;;;;5035534;28;19928;-79
2021/09/01 10:53:26;;;;;;;;;;;;;;;;;;5039277;28;19940;-79
2021/09/01 10:56:10;;;;;;;;;;;;;;;;;;5034915;28;19924;-79
2021/09/01 10:58:55;;;;;;;;;;;;;;;;;;5036423;28;19924;-79
2021/09/01 11:01:39;;;;;;;;;;;;;;;;;;5035771;28;19924;-79
2021/09/01 11:04:24;;;;;;;;;;;;;;;;;;5033559;28;19996;-81
2021/09/01 11:07:08;;;;;;;;;;;;;;;;;;5033625;28;19940;-80
2021/09/01 11:09:53;;;;;;;;;;;;;;;;;;4966677;28;1885597;-81
2021/09/01 11:12:41;;;;;;;;;;;;;;;;;;5036317;28;19917;-81
2021/09/01 11:15:26;;;;;;;;;;;;;;;;;;5035284;28;19928;-80
2021/09/01 11:18:10;;;;;;;;;;;;;;;;;;5039606;28;19924;-81
2021/09/01 11:20:55;;;;;;;;;;;;;;;;;;5037495;28;19924;-83
2021/09/01 11:23:39;;;;;;;;;;;;;;;;;;5035485;28;19932;-84
2021/09/01 11:26:23;;;;;;;;;;;;;;;;;;5039362;28;19947;-82
2021/09/01 11:29:08;;;;;;;;;;;;;;;;;;5034082;28;19924;-82
2021/09/01 11:31:52;;;;;;;;;;;;;;;;;;5027074;28;19933;-82
2021/09/01 11:34:36;;;;;;;;;;;;;;;;;;5040534;28;19967;-83
2021/09/01 11:37:21;;;;;;;;;;;;;;;;;;5040328;28;19924;-83
2021/09/01 11:40:05;;;;;;;;;;;;;;;;;;5039300;28;19975;-84
2021/09/01 11:42:50;;;;;;;;;;;;;;;;;;5043068;28;19920;-83
2021/09/01 11:45:34;;;;;;;;;;;;;;;;;;5040695;28;19924;-82
2021/09/01 11:48:18;;;;;;;;;;;;;;;;;;5039534;28;19920;-83
2021/09/01 11:51:03;;;;;;;;;;;;;;;;;;5044623;28;19928;-83
2021/09/01 11:53:47;;;;;;;;;;;;;;;;;;5041381;28;19925;-83
2021/09/01 11:56:31;;;;;;;;;;;;;;;;;;5041824;28;19932;-83
2021/09/01 11:59:16;;;;;;;;;;;;;;;;;;5041689;28;19920;-82
2021/09/01 12:02:00;;;;;;;;;;;;;;;;;;5044326;28;19920;-83
2021/09/01 12:04:45;;;;;;;;;;;;;;;;;;5042809;28;19920;-82
2021/09/01 12:07:29;;;;;;;;;;;;;;;;;;5040243;28;20311;-83
2021/09/01 12:10:13;;;;;;;;;;;;;;;;;;5043107;28;19943;-83
2021/09/01 12:12:57;;;;;;;;;;;;;;;;;;5042059;28;20297;-84
2021/09/01 12:15:41;;;;;;;;;;;;;;;;;;5041231;28;19924;-82
2021/09/01 12:18:26;;;;;;;;;;;;;;;;;;5044792;28;19920;-83
2021/09/01 12:21:10;;;;;;;;;;;;;;;;;;5043163;28;19920;-80
2021/09/01 12:23:54;;;;;;;;;;;;;;;;;;5043368;28;19920;-79
2021/09/01 12:26:38;;;;;;;;;;;;;;;;;;5050636;28;19920;-80
2021/09/01 12:29:23;;;;;;;;;;;;;;;;;;5040310;28;19928;-79
2021/09/01 12:32:07;;;;;;;;;;;;;;;;;;5038720;28;21421;-79
2021/09/01 12:34:51;;;;;;;;;;;;;;;;;;5047882;28;19924;-79
2021/09/01 12:37:38;;;;;;;;;;;;;;;;;;5046215;28;19920;-79
2021/09/01 12:40:23;;;;;;;;;;;;;;;;;;5046248;28;19928;-79
2021/09/01 12:43:07;;;;;;;;;;;;;;;;;;5052635;28;19920;-79
2021/09/01 12:45:52;;;;;;;;;;;;;;;;;;5050425;28;20317;-79
2021/09/01 12:48:42;;;;;;;;;;;;;;;;;;5047089;28;19920;-80
2021/09/01 12:51:26;;;;;;;;;;;;;;;;;;5056045;28;20415;-79
2021/09/01 12:54:11;;;;;;;;;;;;;;;;;;5051446;28;19920;-79
2021/09/01 12:56:56;;;;;;;;;;;;;;;;;;5048382;28;19924;-80
2021/09/01 12:59:41;;;;;;;;;;;;;;;;;;5048048;28;19920;-80
2021/09/01 13:02:25;;;;;;;;;;;;;;;;;;5046323;28;19921;-81
2021/09/01 13:05:09;;;;;;;;;;;;;;;;;;5048443;28;19924;-81
2021/09/01 13:07:53;;;;;;;;;;;;;;;;;;5048060;28;19920;-81
2021/09/01 13:10:38;;;;;;;;;;;;;;;;;;5049871;28;19920;-81
2021/09/01 13:13:23;;;;;;;;;;;;;;;;;;5049679;28;19925;-81
2021/09/01 13:16:07;;;;;;;;;;;;;;;;;;5044942;28;19924;-81
2021/09/01 13:18:51;;;;;;;;;;;;;;;;;;5051178;28;19936;-80
2021/09/01 13:21:36;;;;;;;;;;;;;;;;;;5051159;28;19920;-79
2021/09/01 13:24:20;;;;;;;;;;;;;;;;;;5047504;28;19920;-80
2021/09/01 13:27:04;;;;;;;;;;;;;;;;;;5051881;28;19920;-80
2021/09/01 13:29:49;;;;;;;;;;;;;;;;;;5049853;28;19920;-80
2021/09/01 13:32:33;;;;;;;;;;;;;;;;;;5050498;28;19947;-80
2021/09/01 13:35:17;;;;;;;;;;;;;;;;;;5052237;28;19928;-80
2021/09/01 13:38:01;;;;;;;;;;;;;;;;;;5051095;28;19920;-81
2021/09/01 13:40:46;;;;;;;;;;;;;;;;;;5047862;28;19920;-81
2021/09/01 13:43:30;;;;;;;;;;;;;;;;;;5051588;28;19920;-82
2021/09/01 13:46:14;;;;;;;;;;;;;;;;;;5050079;28;19921;-83
2021/09/01 13:48:59;;;;;;;;;;;;;;;;;;5045222;28;19921;-82
2021/09/01 13:51:45;;;;;;;;;;;;;;;;;;5043944;28;19947;-83
2021/09/01 13:54:29;;;;;;;;;;;;;;;;;;5039334;28;19920;-81
2021/09/01 13:57:15;;;;;;;;;;;;;;;;;;5039224;28;19924;-82
2021/09/01 14:00:05;;;;;;;;;;;;;;;;;;5037889;28;19921;-82
2021/09/01 14:02:58;;;;;;;;;;;;;;;;;;5037662;28;19925;-82
2021/09/01 14:05:42;;;;;;;;;;;;;;;;;;5043543;28;19924;-82
2021/09/01 14:08:27;;;;;;;;;;;;;;;;;;5045570;28;19925;-80
2021/09/01 14:11:11;;;;;;;;;;;;;;;;;;5041531;28;19920;-80
2021/09/01 14:13:55;;;;;;;;;;;;;;;;;;5038997;28;19920;-80
2021/09/01 14:16:39;;;;;;;;;;;;;;;;;;5045495;28;19932;-81
2021/09/01 14:19:24;;;;;;;;;;;;;;;;;;5041029;28;19920;-80
2021/09/01 14:22:08;;;;;;;;;;;;;;;;;;5041858;28;19920;-80
2021/09/01 14:24:52;;;;;;;;;;;;;;;;;;5039489;28;19920;-80
2021/09/01 14:27:36;;;;;;;;;;;;;;;;;;5045317;28;19921;-80
2021/09/01 14:30:21;;;;;;;;;;;;;;;;;;5041466;28;19920;-81
2021/09/01 14:33:06;;;;;;;;;;;;;;;;;;5034747;28;19932;-80
2021/09/01 14:35:52;;;;;;;;;;;;;;;;;;5043528;28;19996;-81
2021/09/01 14:38:36;;;;;;;;;;;;;;;;;;5040353;28;19920;-80
2021/09/01 14:41:20;;;;;;;;;;;;;;;;;;5040023;28;19920;-81
2021/09/01 14:44:04;;;;;;;;;;;;;;;;;;5044823;28;20475;-80
2021/09/01 14:46:49;;;;;;;;;;;;;;;;;;5043108;28;19932;-80
2021/09/01 14:49:33;;;;;;;;;;;;;;;;;;5036644;28;19936;-81
2021/09/01 14:52:18;;;;;;;;;;;;;;;;;;5035904;28;19920;-79
2021/09/01 14:55:02;;;;;;;;;;;;;;;;;;5038903;28;19924;-79
2021/09/01 14:57:46;;;;;;;;;;;;;;;;;;5039334;28;19920;-79
2021/09/01 15:00:30;;;;;;;;;;;;;;;;;;5037189;28;19920;-79
2021/09/01 15:03:15;;;;;;;;;;;;;;;;;;5041564;28;20420;-80
2021/09/01 15:05:59;;;;;;;;;;;;;;;;;;5039080;28;19928;-79
2021/09/01 15:08:43;;;;;;;;;;;;;;;;;;5036854;28;19928;-79
2021/09/01 15:11:27;;;;;;;;;;;;;;;;;;5042042;28;19924;-80
2021/09/01 15:14:12;;;;;;;;;;;;;;;;;;5039284;28;19920;-80
2021/09/01 15:16:56;;;;;;;;;;;;;;;;;;5036106;28;19984;-79
2021/09/01 15:19:40;;;;;;;;;;;;;;;;;;5042839;28;20404;-80
2021/09/01 15:22:25;;;;;;;;;;;;;;;;;;5048684;28;19924;-80
2021/09/01 15:25:09;;;;;;;;;;;;;;;;;;5045028;28;19920;-80
2021/09/01 15:27:53;;;;;;;;;;;;;;;;;;5044871;28;20289;-82
2021/09/01 15:30:38;;;;;;;;;;;;;;;;;;5043827;28;19920;-83
2021/09/01 15:33:22;;;;;;;;;;;;;;;;;;5044671;28;19920;-81
2021/09/01 15:36:06;;;;;;;;;;;;;;;;;;5040128;28;19924;-81
2021/09/01 15:38:51;;;;;;;;;;;;;;;;;;5041854;28;19920;-81
2021/09/01 15:41:36;;;;;;;;;;;;;;;;;;5037624;28;19936;-80
2021/09/01 15:44:20;;;;;;;;;;;;;;;;;;5038472;28;20297;-82
2021/09/01 15:47:04;;;;;;;;;;;;;;;;;;5045705;28;19921;-82
2021/09/01 15:49:49;;;;;;;;;;;;;;;;;;5039979;28;19920;-84
2021/09/01 15:52:33;;;;;;;;;;;;;;;;;;5048637;28;19924;-86
2021/09/01 15:55:18;;;;;;;;;;;;;;;;;;5049926;28;19920;-85
2021/09/01 15:58:02;;;;;;;;;;;;;;;;;;5048015;28;19920;-86
2021/09/01 16:00:49;;;;;;;;;;;;;;;;;;5041876;28;20056;-85
2021/09/01 16:03:33;;;;;;;;;;;;;;;;;;5038357;28;19921;-86
2021/09/01 16:06:17;;;;;;;;;;;;;;;;;;5041999;28;20431;-90
2021/09/01 16:09:01;;;;;;;;;;;;;;;;;;5038385;28;19928;-87
2021/09/01 16:11:45;;;;;;;;;;;;;;;;;;5039472;28;19920;-85
2021/09/01 16:14:30;;;;;;;;;;;;;;;;;;5041698;28;19921;-85
2021/09/01 16:17:14;;;;;;;;;;;;;;;;;;5042218;28;19924;-87
2021/09/01 16:19:58;;;;;;;;;;;;;;;;;;5041318;28;19921;-86
2021/09/01 16:22:42;;;;;;;;;;;;;;;;;;5045477;28;19924;-85
2021/09/01 16:25:27;;;;;;;;;;;;;;;;;;5043862;28;19920;-86
2021/09/01 16:28:11;;;;;;;;;;;;;;;;;;5044055;28;19992;-85
2021/09/01 16:30:55;;;;;;;;;;;;;;;;;;5041860;28;19920;-85
2021/09/01 16:33:39;;;;;;;;;;;;;;;;;;5039522;28;19921;-83
2021/09/01 16:36:25;;;;;;;;;;;;;;;;;;5032925;28;19964;-84
2021/09/01 16:39:13;;;;;;;;;;;;;;;;;;5038936;28;19996;-84
2021/09/01 16:41:58;;;;;;;;;;;;;;;;;;5034839;28;19920;-83
2021/09/01 16:44:42;;;;;;;;;;;;;;;;;;5034903;28;19920;-82
2021/09/01 16:47:26;;;;;;;;;;;;;;;;;;5042629;28;20054;-83
2021/09/01 16:50:10;;;;;;;;;;;;;;;;;;5041612;28;19920;-83
2021/09/01 16:52:54;;;;;;;;;;;;;;;;;;5042172;28;19920;-82
2021/09/01 16:55:39;;;;;;;;;;;;;;;;;;5039690;28;19928;-83
2021/09/01 16:58:25;;;;;;;;;;;;;;;;;;5037781;28;19920;-83
2021/09/01 17:01:09;;;;;;;;;;;;;;;;;;5039791;28;19920;-82
2021/09/01 17:03:53;;;;;;;;;;;;;;;;;;5033702;28;19921;-83
2021/09/01 17:06:37;;;;;;;;;;;;;;;;;;5040026;28;19928;-84
2021/09/01 17:09:21;;;;;;;;;;;;;;;;;;5036635;28;19924;-83
2021/09/01 17:12:05;;;;;;;;;;;;;;;;;;5037240;28;19928;-82
2021/09/01 17:14:50;;;;;;;;;;;;;;;;;;5042055;28;19920;-82
2021/09/01 17:17:34;;;;;;;;;;;;;;;;;;5031795;28;19928;-81
2021/09/01 17:20:18;;;;;;;;;;;;;;;;;;5032262;28;19924;-81
2021/09/01 17:23:02;;;;;;;;;;;;;;;;;;5035826;28;19936;-82
2021/09/01 17:25:47;;;;;;;;;;;;;;;;;;5036430;28;19928;-81
2021/09/01 17:28:31;;;;;;;;;;;;;;;;;;5037555;28;19928;-82
2021/09/01 17:31:15;;;;;;;;;;;;;;;;;;5040262;28;19921;-82
2021/09/01 17:34:00;;;;;;;;;;;;;;;;;;5034688;28;19936;-81
2021/09/01 17:36:44;;;;;;;;;;;;;;;;;;5038715;28;19924;-82
2021/09/01 17:39:29;;;;;;;;;;;;;;;;;;5035883;28;19921;-81
2021/09/01 17:42:13;;;;;;;;;;;;;;;;;;5037469;28;19936;-82
2021/09/01 17:44:57;;;;;;;;;;;;;;;;;;5033406;28;19921;-80
2021/09/01 17:47:41;;;;;;;;;;;;;;;;;;5043807;28;20400;-81
2021/09/01 17:50:25;;;;;;;;;;;;;;;;;;5038717;28;19920;-82
2021/09/01 17:53:09;;;;;;;;;;;;;;;;;;5044107;28;19920;-82
2021/09/01 17:55:54;;;;;;;;;;;;;;;;;;5039817;28;19932;-81
2021/09/01 17:58:38;;;;;;;;;;;;;;;;;;5039534;28;19920;-81
2021/09/01 18:01:22;;;;;;;;;;;;;;;;;;5027521;28;19924;-81
2021/09/01 18:04:07;;;;;;;;;;;;;;;;;;5034528;28;19956;-81
2021/09/01 18:06:51;;;;;;;;;;;;;;;;;;5031249;28;19928;-80
2021/09/01 18:09:35;;;;;;;;;;;;;;;;;;5025411;28;19932;-81
2021/09/01 18:12:19;;;;;;;;;;;;;;;;;;5030532;28;19927;-80
2021/09/01 18:15:04;;;;;;;;;;;;;;;;;;5038548;28;20000;-81
2021/09/01 18:17:49;;;;;;;;;;;;;;;;;;5034732;28;19932;-81
2021/09/01 18:20:34;;;;;;;;;;;;;;;;;;5029505;28;19924;-80
2021/09/01 18:23:18;;;;;;;;;;;;;;;;;;5038633;28;19928;-81
2021/09/01 18:26:02;;;;;;;;;;;;;;;;;;5031367;28;19947;-80
2021/09/01 18:28:46;;;;;;;;;;;;;;;;;;5032884;28;19919;-81
2021/09/01 18:31:30;;;;;;;;;;;;;;;;;;5027982;28;19924;-80
2021/09/01 18:34:15;;;;;;;;;;;;;;;;;;5037756;28;20519;-81
2021/09/01 18:36:59;;;;;;;;;;;;;;;;;;5025222;28;20316;-80
2021/09/01 18:39:43;;;;;;;;;;;;;;;;;;5031476;28;19924;-81
2021/09/01 18:42:27;;;;;;;;;;;;;;;;;;5035806;28;19928;-81